createdAt,value
2023-01-10T00:09:15.912Z,99416.77
2023-01-10T00:31:00.821Z,99428.17
2023-01-10T00:52:42.965Z,99437.99
2023-01-10T01:14:26.584Z,99461.56
2023-01-10T01:36:11.225Z,99488.17
2023-01-10T01:57:57.707Z,99497.14
2023-01-10T02:19:51.180Z,99516.09
2023-01-10T02:41:45.079Z,99532.96
2023-01-10T03:20:26.375Z,99601.41
2023-01-10T03:54:36.135Z,99659.38
2023-01-10T04:20:27.080Z,99691.98
2023-01-10T04:42:12.752Z,99719.69
2023-01-10T05:03:59.000Z,99773.39
2023-01-10T05:25:44.621Z,99809.02
2023-01-10T05:47:30.259Z,99846.00
2023-01-10T06:20:23.247Z,99898.21
2023-01-10T06:42:08.851Z,99939.27
2023-01-10T07:20:22.476Z,100023.16
2023-01-10T07:42:08.594Z,100050.27
2023-01-10T08:03:54.656Z,100086.86
2023-01-10T08:25:40.721Z,100122.29
2023-01-10T08:47:26.512Z,100153.23
2023-01-10T09:20:44.859Z,100182.69
2023-01-10T09:42:41.108Z,100210.27
2023-01-10T10:15:31.924Z,100251.23
2023-01-10T10:37:21.867Z,100278.74
2023-01-10T10:59:05.291Z,100284.93
2023-01-10T11:20:57.212Z,100291.42
2023-01-10T11:42:40.061Z,100302.48
2023-01-10T12:04:25.903Z,100322.06
2023-01-10T12:26:12.542Z,100348.64
2023-01-10T12:48:02.221Z,100365.63
2023-01-10T13:09:48.046Z,100397.91
2023-01-10T13:31:33.339Z,100412.04
2023-01-10T13:54:04.086Z,100452.45
2023-01-10T14:15:47.889Z,100485.38
2023-01-10T14:37:37.024Z,100507.64
2023-01-10T14:59:28.067Z,100517.56
2023-01-10T15:24:42.560Z,100544.20
2023-01-10T15:46:28.346Z,100570.86
2023-01-10T16:08:14.957Z,100588.05
2023-01-10T16:30:00.768Z,100607.58
2023-01-10T16:51:47.215Z,100619.09
2023-01-10T17:20:25.595Z,100645.47
2023-01-10T17:42:11.256Z,100679.53
2023-01-10T18:03:57.004Z,100673.31
2023-01-10T18:25:42.815Z,100701.99
2023-01-10T18:55:57.005Z,100714.50
2023-01-10T19:17:42.696Z,100724.16
2023-01-10T19:39:28.352Z,100732.05
2023-01-10T20:01:16.457Z,100726.95
2023-01-10T20:23:02.337Z,100733.96
2023-01-10T20:44:48.194Z,100746.90
2023-01-10T21:06:35.305Z,100733.52
2023-01-10T21:28:21.828Z,100721.34
2023-01-10T21:50:10.568Z,100724.05
2023-01-10T22:20:24.566Z,100724.30
2023-01-10T22:42:11.202Z,100717.64
2023-01-10T23:03:57.020Z,100717.05
2023-01-10T23:25:42.735Z,100713.61
2023-01-10T23:47:28.375Z,100702.10
